createdAt,value
2018-11-28T00:02:02.596Z,3.53
2018-11-28T00:05:10.038Z,3.57
2018-11-28T00:08:15.320Z,3.62
2018-11-28T00:11:20.723Z,3.64
2018-11-28T00:14:26.004Z,3.61
2018-11-28T00:17:31.407Z,3.52
2018-11-28T00:20:36.809Z,3.46
2018-11-28T00:23:42.091Z,3.38
2018-11-28T00:26:47.492Z,3.38
2018-11-28T00:29:52.773Z,3.30
2018-11-28T00:32:58.420Z,3.27
2018-11-28T00:36:03.819Z,3.11
2018-11-28T00:39:09.102Z,3.10
2018-11-28T00:42:14.503Z,3.11
2018-11-28T00:45:21.706Z,3.10
2018-11-28T00:48:26.987Z,3.00
2018-11-28T00:51:32.389Z,3.04
2018-11-28T00:54:37.672Z,3.09
2018-11-28T00:57:43.192Z,3.06
2018-11-28T01:00:48.714Z,3.00
2018-11-28T01:03:54.117Z,3.02
2018-11-28T01:07:01.919Z,3.00
2018-11-28T01:10:10.920Z,2.98
2018-11-28T01:13:16.323Z,3.05
2018-11-28T01:16:21.724Z,3.04
2018-11-28T01:19:27.246Z,3.02
2018-11-28T01:22:32.769Z,3.06
2018-11-28T01:25:38.051Z,3.09
2018-11-28T01:28:46.455Z,3.08
2018-11-28T01:31:48.976Z,3.07
2018-11-28T01:34:54.377Z,3.10
2018-11-28T01:37:59.779Z,3.13
2018-11-28T01:41:05.422Z,3.13
2018-11-28T01:44:10.702Z,3.16
2018-11-28T01:47:16.105Z,3.31
2018-11-28T01:50:21.867Z,3.34
2018-11-28T01:53:27.269Z,3.32
2018-11-28T01:56:32.795Z,3.21
2018-11-28T01:59:45.994Z,3.21
2018-11-28T02:02:56.437Z,3.16
2018-11-28T02:06:01.717Z,3.07
2018-11-28T02:09:08.199Z,3.10
2018-11-28T02:12:13.601Z,3.13
2018-11-28T02:15:20.085Z,3.18
2018-11-28T02:18:25.725Z,3.27
2018-11-28T02:21:31.128Z,3.32
2018-11-28T02:24:36.414Z,3.38
2018-11-28T02:27:42.179Z,3.35
2018-11-28T02:30:47.574Z,3.33
2018-11-28T02:33:52.873Z,3.26
2018-11-28T02:36:58.257Z,3.32
2018-11-28T02:40:04.140Z,3.28
2018-11-28T02:43:09.541Z,3.28
2018-11-28T02:46:26.223Z,3.28
2018-11-28T02:49:31.505Z,3.33
2018-11-28T02:52:36.908Z,3.32
2018-11-28T02:55:42.310Z,3.35
2018-11-28T02:58:47.595Z,3.54
2018-11-28T03:01:53.235Z,3.51
2018-11-28T03:04:58.517Z,3.51
2018-11-28T03:08:04.040Z,3.48
2018-11-28T03:11:17.240Z,3.53
2018-11-28T03:14:22.645Z,3.58
2018-11-28T03:17:28.045Z,3.52
2018-11-28T03:20:33.446Z,3.38
2018-11-28T03:23:38.848Z,3.28
2018-11-28T03:26:44.251Z,3.33
2018-11-28T03:29:49.651Z,3.27
2018-11-28T03:32:55.056Z,3.13
2018-11-28T03:36:13.778Z,3.06
2018-11-28T03:39:19.058Z,3.11
2018-11-28T03:42:24.463Z,3.24
2018-11-28T03:45:29.863Z,3.23
2018-11-28T03:48:35.144Z,3.21
2018-11-28T03:51:40.547Z,3.24
2018-11-28T03:54:45.829Z,3.24
2018-11-28T03:57:51.231Z,3.10
2018-11-28T04:00:56.633Z,3.12
2018-11-28T04:04:01.917Z,3.09
2018-11-28T04:07:07.318Z,3.09
2018-11-28T04:10:13.801Z,3.03
2018-11-28T04:13:19.207Z,2.98
2018-11-28T04:16:24.604Z,3.04
2018-11-28T04:19:30.125Z,3.16
2018-11-28T04:22:50.769Z,3.22
2018-11-28T04:25:56.050Z,3.18
2018-11-28T04:29:01.455Z,3.22
2018-11-28T04:32:06.853Z,3.24
2018-11-28T04:35:13.575Z,3.33
2018-11-28T04:38:18.978Z,3.36
2018-11-28T04:41:24.262Z,3.33
2018-11-28T04:44:29.662Z,3.36
2018-11-28T04:47:35.185Z,3.38
2018-11-28T04:50:40.706Z,3.44
2018-11-28T04:53:45.988Z,3.43
2018-11-28T04:56:51.389Z,3.38
2018-11-28T04:59:57.152Z,3.43
2018-11-28T05:03:02.433Z,3.35
2018-11-28T05:06:08.076Z,3.46
2018-11-28T05:09:13.358Z,3.54
2018-11-28T05:12:18.777Z,3.49
2018-11-28T05:15:26.461Z,3.28
2018-11-28T05:18:31.844Z,3.12
2018-11-28T05:21:37.246Z,3.13
2018-11-28T05:24:43.007Z,3.08
2018-11-28T05:27:49.256Z,3.10
2018-11-28T05:30:54.772Z,3.06
2018-11-28T05:34:00.173Z,3.08
2018-11-28T05:37:06.295Z,3.05
2018-11-28T05:40:27.418Z,3.07
2018-11-28T05:43:32.939Z,3.02
2018-11-28T05:46:38.463Z,3.02
2018-11-28T05:49:44.345Z,3.00
2018-11-28T05:52:50.353Z,2.94
2018-11-28T05:55:56.107Z,2.98
2018-11-28T05:59:01.634Z,3.03
2018-11-28T06:02:07.273Z,3.05
2018-11-28T06:05:27.558Z,3.14
2018-11-28T06:08:33.200Z,3.15
2018-11-28T06:11:40.638Z,3.20
2018-11-28T06:14:46.283Z,3.22
2018-11-28T06:17:52.162Z,3.19
2018-11-28T06:21:18.685Z,3.04
2018-11-28T06:24:24.208Z,3.05
2018-11-28T06:27:29.848Z,3.04
2018-11-28T06:30:36.095Z,3.13
2018-11-28T06:33:41.617Z,3.15
2018-11-28T06:36:47.262Z,3.05
2018-11-28T06:39:52.779Z,2.98
2018-11-28T06:42:58.664Z,2.95
2018-11-28T06:46:04.792Z,2.93
2018-11-28T06:49:10.429Z,2.95
2018-11-28T06:52:15.948Z,3.01
2018-11-28T06:55:21.954Z,3.06
2018-11-28T06:58:29.751Z,3.08
2018-11-28T07:01:35.752Z,3.12
2018-11-28T07:04:43.315Z,3.10
2018-11-28T07:07:51.004Z,3.16
2018-11-28T07:10:58.328Z,3.15
2018-11-28T07:14:04.082Z,3.23
2018-11-28T07:17:09.607Z,3.23
2018-11-28T07:20:23.532Z,3.19
2018-11-28T07:23:29.295Z,3.06
2018-11-28T07:26:36.012Z,3.09
2018-11-28T07:29:42.854Z,3.10
2018-11-28T07:32:51.139Z,3.19
2018-11-28T07:35:57.378Z,3.09
2018-11-28T07:39:03.740Z,3.23
2018-11-28T07:42:19.114Z,3.39
2018-11-28T07:45:24.983Z,3.38
2018-11-28T07:48:32.783Z,3.20
2018-11-28T08:09:57.405Z,3.74
2018-11-28T08:13:02.382Z,3.78
2018-11-28T08:16:09.223Z,3.88
2018-11-28T08:19:16.224Z,3.85
2018-11-28T08:22:21.268Z,3.72
2018-11-28T08:25:27.999Z,3.76
2018-11-28T08:28:36.133Z,3.88
2018-11-28T08:31:41.503Z,3.92
2018-11-28T08:34:46.510Z,3.92
2018-11-28T08:37:51.515Z,4.00
2018-11-28T08:40:58.492Z,4.08
2018-11-28T08:44:03.720Z,4.12
2018-11-28T08:47:08.749Z,4.11
2018-11-28T08:50:15.139Z,4.12
2018-11-28T08:53:20.336Z,4.17
2018-11-28T08:56:25.378Z,4.21
2018-11-28T08:59:30.406Z,4.11
2018-11-28T09:02:35.464Z,4.10
2018-11-28T09:05:40.532Z,4.16
2018-11-28T09:08:47.236Z,4.29
2018-11-28T09:11:52.289Z,4.19
2018-11-28T09:14:57.321Z,4.25
2018-11-28T09:18:04.555Z,4.37
2018-11-28T09:21:09.617Z,4.49
2018-11-28T09:24:14.754Z,4.59
2018-11-28T09:27:19.801Z,4.73
2018-11-28T09:30:25.001Z,4.87
2018-11-28T09:33:30.133Z,4.97
2018-11-28T09:36:37.728Z,4.94
2018-11-28T09:39:45.101Z,4.85
2018-11-28T09:42:51.243Z,4.97
2018-11-28T09:45:56.337Z,5.00
2018-11-28T09:49:02.474Z,4.99
2018-11-28T09:52:07.520Z,4.85
2018-11-28T09:55:13.905Z,4.88
2018-11-28T09:58:20.605Z,4.93
2018-11-28T10:01:26.734Z,5.11
2018-11-28T10:04:33.258Z,5.31
2018-11-28T10:07:39.451Z,5.43
2018-11-28T10:10:44.480Z,5.55
2018-11-28T10:13:52.176Z,5.58
2018-11-28T10:16:59.254Z,5.50
2018-11-28T10:20:04.979Z,5.33
2018-11-28T10:23:11.920Z,5.47
2018-11-28T10:26:16.972Z,5.63
2018-11-28T10:29:23.664Z,5.84
2018-11-28T10:32:29.908Z,5.95
2018-11-28T10:35:35.867Z,6.15
2018-11-28T10:38:44.739Z,6.30
2018-11-28T10:41:49.896Z,6.43
2018-11-28T10:44:54.965Z,6.27
2018-11-28T10:48:00.057Z,6.25
2018-11-28T10:51:05.869Z,6.18
2018-11-28T10:54:11.899Z,6.23
2018-11-28T10:57:16.946Z,6.07
2018-11-28T11:00:29.860Z,5.96
2018-11-28T11:03:40.844Z,5.81
2018-11-28T11:06:56.423Z,5.75
2018-11-28T11:10:07.120Z,5.57
2018-11-28T11:13:18.015Z,5.45
2018-11-28T11:16:28.884Z,5.48
2018-11-28T11:19:33.931Z,5.57
2018-11-28T11:22:38.876Z,5.72
2018-11-28T11:25:44.058Z,5.85
2018-11-28T11:28:49.063Z,5.79
2018-11-28T11:31:55.837Z,5.67
2018-11-28T11:35:00.828Z,5.59
2018-11-28T11:38:05.915Z,5.70
2018-11-28T11:41:12.573Z,5.92
2018-11-28T11:44:19.435Z,6.09
2018-11-28T11:47:24.488Z,6.09
2018-11-28T11:50:31.156Z,6.29
2018-11-28T11:53:36.139Z,6.34
2018-11-28T11:56:41.190Z,6.20
2018-11-28T11:59:46.247Z,6.02
2018-11-28T12:03:11.672Z,5.84
2018-11-28T12:06:18.675Z,5.75
2018-11-28T12:09:27.210Z,6.00
2018-11-28T12:12:34.172Z,6.16
2018-11-28T12:15:39.213Z,6.18
2018-11-28T12:18:46.060Z,6.07
2018-11-28T12:22:58.355Z,6.06
2018-11-28T12:26:18.375Z,5.87
2018-11-28T12:29:23.455Z,5.94
2018-11-28T12:32:28.497Z,6.00
2018-11-28T12:35:33.546Z,6.06
2018-11-28T12:38:38.617Z,6.18
2018-11-28T12:41:45.361Z,6.27
2018-11-28T12:44:52.243Z,6.30
2018-11-28T12:47:57.312Z,6.18
2018-11-28T12:51:02.361Z,6.24
2018-11-28T12:54:07.377Z,6.18
2018-11-28T12:57:14.216Z,6.06
2018-11-28T13:00:23.073Z,6.02
2018-11-28T13:03:29.801Z,6.01
2018-11-28T13:06:38.687Z,6.04
2018-11-28T13:09:44.233Z,6.14
2018-11-28T13:12:59.730Z,6.18
2018-11-28T13:16:05.312Z,6.23
2018-11-28T13:19:10.645Z,6.33
2018-11-28T13:22:20.907Z,6.36
2018-11-28T13:25:28.121Z,6.19
2018-11-28T13:28:35.131Z,6.10
2018-11-28T13:31:41.912Z,6.23
2018-11-28T13:34:52.564Z,6.31
2018-11-28T13:38:01.066Z,6.43
2018-11-28T13:41:07.943Z,6.40
2018-11-28T13:44:12.944Z,6.55
2018-11-28T13:47:18.013Z,6.53
2018-11-28T13:50:25.047Z,6.58
2018-11-28T13:53:32.030Z,6.43
2018-11-28T13:59:47.585Z,6.20
2018-11-28T14:02:55.810Z,6.25
2018-11-28T14:06:02.856Z,6.18
2018-11-28T14:09:09.962Z,6.15
2018-11-28T14:12:16.916Z,6.24
2018-11-28T14:15:24.066Z,6.42
2018-11-28T14:18:32.010Z,6.27
2018-11-28T14:21:44.673Z,6.31
2018-11-28T14:24:51.486Z,6.44
2018-11-28T14:27:58.738Z,6.37
2018-11-28T14:31:06.025Z,6.47
2018-11-28T14:34:15.469Z,6.32
2018-11-28T14:37:24.455Z,6.25
2018-11-28T14:40:29.697Z,6.25
2018-11-28T14:43:34.904Z,6.19
2018-11-28T14:46:41.840Z,6.17
2018-11-28T14:49:46.847Z,6.06
2018-11-28T14:52:54.501Z,5.83
2018-11-28T14:56:01.172Z,5.78
2018-11-28T14:59:06.288Z,5.81
2018-11-28T15:02:13.346Z,5.85
2018-11-28T15:05:23.857Z,5.89
2018-11-28T15:08:29.435Z,5.85
2018-11-28T15:11:39.140Z,5.76
2018-11-28T15:14:46.184Z,5.78
2018-11-28T15:17:51.381Z,5.79
2018-11-28T15:20:59.727Z,5.77
2018-11-28T15:24:06.747Z,5.72
2018-11-28T15:27:13.771Z,5.72
2018-11-28T15:30:20.821Z,5.70
2018-11-28T15:33:25.924Z,5.58
2018-11-28T15:36:30.980Z,5.57
2018-11-28T15:39:36.059Z,5.48
2018-11-28T15:42:41.116Z,5.46
2018-11-28T15:45:46.162Z,5.44
2018-11-28T15:48:51.222Z,5.47
2018-11-28T15:51:56.268Z,5.41
2018-11-28T15:55:01.389Z,5.41
2018-11-28T15:58:06.480Z,5.31
2018-11-28T16:01:11.623Z,5.30
2018-11-28T16:04:16.633Z,5.34
2018-11-28T16:07:21.664Z,5.42
2018-11-28T16:10:32.366Z,5.50
2018-11-28T16:13:37.435Z,5.52
2018-11-28T16:16:49.967Z,5.61
2018-11-28T16:19:54.953Z,5.67
2018-11-28T16:23:04.126Z,5.73
2018-11-28T16:26:05.351Z,5.72
2018-11-28T16:29:10.555Z,5.66
2018-11-28T16:32:15.540Z,5.64
2018-11-28T16:35:20.584Z,5.63
2018-11-28T16:38:33.231Z,5.70
2018-11-28T16:41:38.149Z,5.65
2018-11-28T16:44:43.103Z,5.66
2018-11-28T16:47:48.329Z,5.62
2018-11-28T16:50:53.298Z,5.58
2018-11-28T16:53:58.258Z,5.66
2018-11-28T16:57:03.233Z,5.68
2018-11-28T17:00:11.814Z,5.65
2018-11-28T17:03:16.807Z,5.85
2018-11-28T17:06:21.773Z,5.90
2018-11-28T17:09:26.763Z,6.06
2018-11-28T17:12:31.719Z,6.15
2018-11-28T17:15:36.776Z,6.31
2018-11-28T17:18:41.747Z,6.33
2018-11-28T17:21:46.764Z,6.44
2018-11-28T17:24:51.778Z,6.24
2018-11-28T17:27:56.744Z,6.10
2018-11-28T17:31:01.727Z,6.04
2018-11-28T17:34:06.735Z,6.16
2018-11-28T17:37:42.536Z,6.20
2018-11-28T17:40:47.636Z,6.19
2018-11-28T17:43:52.659Z,6.13
2018-11-28T17:46:57.674Z,6.18
2018-11-28T17:50:03.487Z,6.17
2018-11-28T17:53:11.789Z,6.30
2018-11-28T17:56:16.803Z,6.43
2018-11-28T17:59:21.776Z,6.50
2018-11-28T18:02:26.870Z,6.61
2018-11-28T18:05:31.875Z,6.65
2018-11-28T18:08:36.868Z,6.72
2018-11-28T18:11:41.847Z,6.69
2018-11-28T18:14:46.965Z,6.69
2018-11-28T18:17:53.379Z,6.67
2018-11-28T18:20:58.359Z,6.63
2018-11-28T18:24:03.419Z,6.48
2018-11-28T18:27:08.387Z,6.42
2018-11-28T18:30:13.486Z,6.50
2018-11-28T18:33:18.520Z,6.47
2018-11-28T18:36:23.507Z,6.43
2018-11-28T18:39:28.454Z,6.44
2018-11-28T18:42:33.360Z,6.42
2018-11-28T18:45:40.386Z,6.37
2018-11-28T18:48:45.315Z,6.36
2018-11-28T18:51:50.405Z,6.37
2018-11-28T18:54:55.399Z,6.36
2018-11-28T18:58:00.479Z,6.29
2018-11-28T19:01:05.540Z,6.31
2018-11-28T19:04:11.108Z,6.32
2018-11-28T19:07:16.419Z,6.18
2018-11-28T19:10:26.343Z,6.10
2018-11-28T19:13:29.235Z,5.88
2018-11-28T19:19:46.024Z,5.65
2018-11-28T19:22:51.888Z,5.45
2018-11-28T19:25:56.836Z,5.43
2018-11-28T19:29:03.025Z,5.42
2018-11-28T19:32:08.144Z,5.56
2018-11-28T19:35:13.304Z,5.70
2018-11-28T19:38:18.300Z,5.72
2018-11-28T19:41:24.938Z,5.62
2018-11-28T19:44:29.994Z,5.58
2018-11-28T19:47:35.136Z,5.59
2018-11-28T19:50:40.703Z,5.59
2018-11-28T19:53:45.608Z,5.60
2018-11-28T19:56:50.565Z,5.68
2018-11-28T19:59:55.524Z,5.69
2018-11-28T20:03:00.554Z,5.69
2018-11-28T20:06:05.553Z,5.74
2018-11-28T20:09:16.725Z,5.76
2018-11-28T20:12:21.667Z,5.74
2018-11-28T20:15:27.953Z,5.76
2018-11-28T20:18:33.207Z,5.76
2018-11-28T20:21:38.156Z,5.74
2018-11-28T20:24:43.071Z,5.79
2018-11-28T20:27:52.582Z,5.75
2018-11-28T20:30:57.507Z,5.77
2018-11-28T20:34:02.407Z,5.94
2018-11-28T20:37:07.735Z,6.00
2018-11-28T20:40:14.067Z,5.99
2018-11-28T20:43:19.059Z,5.98
2018-11-28T20:46:24.096Z,6.01
2018-11-28T20:49:29.047Z,5.91
2018-11-28T20:52:34.558Z,5.93
2018-11-28T20:55:39.505Z,5.71
2018-11-28T20:58:44.512Z,5.65
2018-11-28T21:01:49.618Z,5.72
2018-11-28T21:04:54.619Z,5.68
2018-11-28T21:07:59.598Z,5.60
2018-11-28T21:11:05.671Z,5.61
2018-11-28T21:14:10.607Z,5.56
2018-11-28T21:17:15.591Z,5.48
2018-11-28T21:20:22.004Z,5.47
2018-11-28T21:23:26.968Z,5.51
2018-11-28T21:26:31.911Z,5.38
2018-11-28T21:29:36.898Z,5.37
2018-11-28T21:32:42.264Z,5.38
2018-11-28T21:35:48.782Z,5.44
2018-11-28T21:38:53.735Z,5.42
2018-11-28T21:41:58.654Z,5.36
2018-11-28T21:45:05.272Z,5.31
2018-11-28T21:48:10.215Z,5.21
2018-11-28T21:51:15.122Z,5.14
2018-11-28T21:54:20.035Z,5.18
2018-11-28T21:57:24.994Z,5.22
2018-11-28T22:00:29.903Z,5.23
2018-11-28T22:03:34.830Z,5.23
2018-11-28T22:06:39.863Z,5.25
2018-11-28T22:09:44.909Z,5.32
2018-11-28T22:12:49.971Z,5.08
2018-11-28T22:15:54.960Z,5.15
2018-11-28T22:18:59.887Z,5.17
2018-11-28T22:22:39.504Z,5.15
2018-11-28T22:25:44.471Z,4.96
2018-11-28T22:28:49.471Z,4.99
2018-11-28T22:31:54.891Z,5.02
2018-11-28T22:34:59.888Z,4.95
2018-11-28T22:38:05.274Z,4.94
2018-11-28T22:41:10.267Z,4.92
2018-11-28T22:44:15.318Z,4.84
2018-11-28T22:47:20.311Z,4.89
2018-11-28T22:50:25.267Z,4.92
2018-11-28T22:53:30.218Z,4.98
2018-11-28T22:56:35.147Z,5.05
2018-11-28T23:02:58.826Z,5.12
2018-11-28T23:06:04.147Z,5.16
2018-11-28T23:09:09.059Z,5.03
2018-11-28T23:12:13.959Z,4.83
2018-11-28T23:15:18.870Z,4.75
2018-11-28T23:18:23.797Z,4.76
2018-11-28T23:21:39.559Z,4.77
2018-11-28T23:24:44.460Z,4.76
2018-11-28T23:27:49.418Z,4.72
2018-11-28T23:30:54.336Z,4.75
2018-11-28T23:33:59.242Z,4.69
2018-11-28T23:37:05.361Z,4.69
2018-11-28T23:40:13.591Z,4.76
2018-11-28T23:43:18.525Z,4.82
2018-11-28T23:46:23.459Z,4.92
2018-11-28T23:49:28.381Z,4.89
2018-11-28T23:52:33.278Z,4.84
2018-11-28T23:55:38.186Z,4.87
2018-11-28T23:58:43.095Z,4.94
